sensor_id;sensor_type;location;lat;lon;timestamp;P1;durP1;ratioP1;P2;durP2;ratioP2
68229;SDS011;55048;52.220;5.160;2023-03-18T00:00:29;12.63;;;8.05;;
68229;SDS011;55048;52.220;5.160;2023-03-18T00:02:54;14.35;;;7.60;;
68229;SDS011;55048;52.220;5.160;2023-03-18T00:05:20;15.80;;;8.75;;
68229;SDS011;55048;52.220;5.160;2023-03-18T00:07:45;12.65;;;8.32;;
68229;SDS011;55048;52.220;5.160;2023-03-18T00:10:11;17.42;;;8.20;;
68229;SDS011;55048;52.220;5.160;2023-03-18T00:12:38;18.67;;;8.80;;
68229;SDS011;55048;52.220;5.160;2023-03-18T00:15:05;13.57;;;8.35;;
68229;SDS011;55048;52.220;5.160;2023-03-18T00:17:33;13.63;;;8.30;;
68229;SDS011;55048;52.220;5.160;2023-03-18T00:19:59;16.50;;;7.85;;
68229;SDS011;55048;52.220;5.160;2023-03-18T00:22:33;17.35;;;8.95;;
68229;SDS011;55048;52.220;5.160;2023-03-18T00:25:00;14.77;;;8.45;;
68229;SDS011;55048;52.220;5.160;2023-03-18T00:27:27;13.32;;;8.88;;
68229;SDS011;55048;52.220;5.160;2023-03-18T00:29:52;16.63;;;9.13;;
68229;SDS011;55048;52.220;5.160;2023-03-18T00:32:18;15.40;;;8.90;;
68229;SDS011;55048;52.220;5.160;2023-03-18T00:34:44;15.25;;;8.55;;
68229;SDS011;55048;52.220;5.160;2023-03-18T00:37:10;16.25;;;9.25;;
68229;SDS011;55048;52.220;5.160;2023-03-18T00:39:43;18.17;;;9.57;;
68229;SDS011;55048;52.220;5.160;2023-03-18T00:42:10;17.45;;;8.43;;
68229;SDS011;55048;52.220;5.160;2023-03-18T00:44:37;15.90;;;9.32;;
68229;SDS011;55048;52.220;5.160;2023-03-18T00:47:03;18.63;;;9.93;;
68229;SDS011;55048;52.220;5.160;2023-03-18T00:49:33;16.30;;;9.27;;
68229;SDS011;55048;52.220;5.160;2023-03-18T00:51:59;19.88;;;9.48;;
68229;SDS011;55048;52.220;5.160;2023-03-18T00:54:24;17.75;;;9.55;;
68229;SDS011;55048;52.220;5.160;2023-03-18T00:56:50;18.88;;;10.43;;
68229;SDS011;55048;52.220;5.160;2023-03-18T00:59:15;21.55;;;10.45;;
68229;SDS011;55048;52.220;5.160;2023-03-18T01:01:42;18.50;;;10.10;;
68229;SDS011;55048;52.220;5.160;2023-03-18T01:04:07;14.38;;;10.00;;
68229;SDS011;55048;52.220;5.160;2023-03-18T01:06:34;15.95;;;10.18;;
68229;SDS011;55048;52.220;5.160;2023-03-18T01:09:02;17.00;;;9.77;;
68229;SDS011;55048;52.220;5.160;2023-03-18T01:11:29;20.02;;;10.60;;
68229;SDS011;55048;52.220;5.160;2023-03-18T01:13:54;16.83;;;9.57;;
68229;SDS011;55048;52.220;5.160;2023-03-18T01:16:20;18.52;;;9.20;;
68229;SDS011;55048;52.220;5.160;2023-03-18T01:18:46;24.02;;;10.45;;
68229;SDS011;55048;52.220;5.160;2023-03-18T01:21:12;17.42;;;9.68;;
68229;SDS011;55048;52.220;5.160;2023-03-18T01:23:52;22.60;;;9.70;;
68229;SDS011;55048;52.220;5.160;2023-03-18T01:26:17;16.67;;;10.13;;
68229;SDS011;55048;52.220;5.160;2023-03-18T01:28:44;18.60;;;10.15;;
68229;SDS011;55048;52.220;5.160;2023-03-18T01:31:11;22.30;;;10.20;;
68229;SDS011;55048;52.220;5.160;2023-03-18T01:33:38;19.25;;;10.15;;
68229;SDS011;55048;52.220;5.160;2023-03-18T01:36:05;23.33;;;11.05;;
68229;SDS011;55048;52.220;5.160;2023-03-18T01:38:32;16.88;;;10.00;;
68229;SDS011;55048;52.220;5.160;2023-03-18T01:41:06;16.77;;;9.50;;
68229;SDS011;55048;52.220;5.160;2023-03-18T01:43:33;15.40;;;9.57;;
68229;SDS011;55048;52.220;5.160;2023-03-18T01:46:21;21.05;;;10.45;;
68229;SDS011;55048;52.220;5.160;2023-03-18T01:49:14;14.85;;;9.70;;
68229;SDS011;55048;52.220;5.160;2023-03-18T01:52:06;17.35;;;10.48;;
68229;SDS011;55048;52.220;5.160;2023-03-18T01:54:45;19.58;;;10.20;;
68229;SDS011;55048;52.220;5.160;2023-03-18T01:57:17;17.88;;;10.68;;
68229;SDS011;55048;52.220;5.160;2023-03-18T01:59:44;19.13;;;11.13;;
68229;SDS011;55048;52.220;5.160;2023-03-18T02:02:14;16.95;;;9.93;;
68229;SDS011;55048;52.220;5.160;2023-03-18T02:04:42;16.65;;;10.82;;
68229;SDS011;55048;52.220;5.160;2023-03-18T02:07:14;15.75;;;9.93;;
68229;SDS011;55048;52.220;5.160;2023-03-18T02:09:41;22.02;;;9.93;;
68229;SDS011;55048;52.220;5.160;2023-03-18T02:12:08;19.00;;;9.52;;
68229;SDS011;55048;52.220;5.160;2023-03-18T02:14:37;19.08;;;10.02;;
68229;SDS011;55048;52.220;5.160;2023-03-18T02:17:05;17.02;;;10.00;;
68229;SDS011;55048;52.220;5.160;2023-03-18T02:27:48;16.35;;;10.43;;
68229;SDS011;55048;52.220;5.160;2023-03-18T02:30:19;19.83;;;10.75;;
68229;SDS011;55048;52.220;5.160;2023-03-18T02:32:51;19.55;;;10.82;;
68229;SDS011;55048;52.220;5.160;2023-03-18T02:35:19;21.55;;;10.75;;
68229;SDS011;55048;52.220;5.160;2023-03-18T02:37:45;15.98;;;10.90;;
68229;SDS011;55048;52.220;5.160;2023-03-18T02:40:15;19.73;;;10.63;;
68229;SDS011;55048;52.220;5.160;2023-03-18T02:42:47;19.90;;;11.02;;
68229;SDS011;55048;52.220;5.160;2023-03-18T02:48:13;22.13;;;10.60;;
68229;SDS011;55048;52.220;5.160;2023-03-18T02:53:07;22.30;;;11.20;;
68229;SDS011;55048;52.220;5.160;2023-03-18T02:55:36;24.90;;;11.70;;
68229;SDS011;55048;52.220;5.160;2023-03-18T02:58:01;19.60;;;10.75;;
68229;SDS011;55048;52.220;5.160;2023-03-18T03:00:27;23.45;;;10.90;;
68229;SDS011;55048;52.220;5.160;2023-03-18T03:02:53;18.50;;;11.63;;
68229;SDS011;55048;52.220;5.160;2023-03-18T03:05:18;19.13;;;12.00;;
68229;SDS011;55048;52.220;5.160;2023-03-18T03:07:44;19.92;;;11.32;;
68229;SDS011;55048;52.220;5.160;2023-03-18T03:10:11;22.30;;;11.60;;
68229;SDS011;55048;52.220;5.160;2023-03-18T03:12:38;20.65;;;12.18;;
68229;SDS011;55048;52.220;5.160;2023-03-18T03:15:07;22.60;;;11.48;;
68229;SDS011;55048;52.220;5.160;2023-03-18T03:17:34;20.25;;;12.13;;
68229;SDS011;55048;52.220;5.160;2023-03-18T03:20:01;22.67;;;11.95;;
68229;SDS011;55048;52.220;5.160;2023-03-18T03:22:30;18.27;;;11.88;;
68229;SDS011;55048;52.220;5.160;2023-03-18T03:24:56;22.30;;;12.60;;
68229;SDS011;55048;52.220;5.160;2023-03-18T03:27:22;19.20;;;11.70;;
68229;SDS011;55048;52.220;5.160;2023-03-18T03:29:47;20.02;;;12.57;;
68229;SDS011;55048;52.220;5.160;2023-03-18T03:32:13;26.17;;;12.15;;
68229;SDS011;55048;52.220;5.160;2023-03-18T03:34:39;22.02;;;12.55;;
68229;SDS011;55048;52.220;5.160;2023-03-18T03:37:05;24.13;;;12.95;;
68229;SDS011;55048;52.220;5.160;2023-03-18T03:39:31;26.55;;;13.95;;
68229;SDS011;55048;52.220;5.160;2023-03-18T03:41:56;20.20;;;12.73;;
68229;SDS011;55048;52.220;5.160;2023-03-18T03:44:22;18.42;;;12.45;;
68229;SDS011;55048;52.220;5.160;2023-03-18T03:46:48;26.70;;;13.52;;
68229;SDS011;55048;52.220;5.160;2023-03-18T03:49:14;20.25;;;13.50;;
68229;SDS011;55048;52.220;5.160;2023-03-18T03:51:39;24.02;;;13.48;;
68229;SDS011;55048;52.220;5.160;2023-03-18T03:54:06;20.38;;;12.77;;
68229;SDS011;55048;52.220;5.160;2023-03-18T03:56:34;17.40;;;12.70;;
68229;SDS011;55048;52.220;5.160;2023-03-18T03:59:00;26.10;;;13.93;;
68229;SDS011;55048;52.220;5.160;2023-03-18T04:01:44;22.00;;;13.27;;
68229;SDS011;55048;52.220;5.160;2023-03-18T04:04:10;23.98;;;13.05;;
68229;SDS011;55048;52.220;5.160;2023-03-18T04:06:35;20.88;;;13.65;;
68229;SDS011;55048;52.220;5.160;2023-03-18T04:09:02;21.08;;;12.20;;
68229;SDS011;55048;52.220;5.160;2023-03-18T04:11:29;25.77;;;13.82;;
68229;SDS011;55048;52.220;5.160;2023-03-18T04:13:55;24.02;;;13.27;;
68229;SDS011;55048;52.220;5.160;2023-03-18T04:16:21;22.30;;;13.00;;
68229;SDS011;55048;52.220;5.160;2023-03-18T04:18:47;21.10;;;12.85;;
68229;SDS011;55048;52.220;5.160;2023-03-18T04:21:12;27.80;;;13.57;;
68229;SDS011;55048;52.220;5.160;2023-03-18T04:23:45;21.70;;;13.25;;
68229;SDS011;55048;52.220;5.160;2023-03-18T04:26:11;23.95;;;12.75;;
68229;SDS011;55048;52.220;5.160;2023-03-18T04:28:37;19.70;;;12.40;;
68229;SDS011;55048;52.220;5.160;2023-03-18T04:31:05;21.95;;;13.20;;
68229;SDS011;55048;52.220;5.160;2023-03-18T04:33:31;21.08;;;12.35;;
68229;SDS011;55048;52.220;5.160;2023-03-18T04:35:56;23.88;;;12.98;;
68229;SDS011;55048;52.220;5.160;2023-03-18T04:38:22;22.05;;;12.55;;
68229;SDS011;55048;52.220;5.160;2023-03-18T04:40:50;24.08;;;12.45;;
68229;SDS011;55048;52.220;5.160;2023-03-18T04:43:16;22.65;;;12.30;;
68229;SDS011;55048;52.220;5.160;2023-03-18T04:45:42;25.85;;;12.80;;
68229;SDS011;55048;52.220;5.160;2023-03-18T04:48:07;20.55;;;11.32;;
68229;SDS011;55048;52.220;5.160;2023-03-18T04:50:37;19.75;;;11.35;;
68229;SDS011;55048;52.220;5.160;2023-03-18T04:53:06;22.15;;;12.48;;
68229;SDS011;55048;52.220;5.160;2023-03-18T04:55:32;18.98;;;11.70;;
68229;SDS011;55048;52.220;5.160;2023-03-18T04:57:59;21.23;;;12.25;;
68229;SDS011;55048;52.220;5.160;2023-03-18T05:00:27;24.40;;;12.75;;
68229;SDS011;55048;52.220;5.160;2023-03-18T05:03:02;22.50;;;11.93;;
68229;SDS011;55048;52.220;5.160;2023-03-18T05:05:28;19.77;;;12.05;;
68229;SDS011;55048;52.220;5.160;2023-03-18T05:07:53;22.35;;;11.75;;
68229;SDS011;55048;52.220;5.160;2023-03-18T05:10:20;23.90;;;11.85;;
68229;SDS011;55048;52.220;5.160;2023-03-18T05:12:46;17.23;;;11.82;;
68229;SDS011;55048;52.220;5.160;2023-03-18T05:15:14;19.35;;;11.75;;
68229;SDS011;55048;52.220;5.160;2023-03-18T05:17:45;19.30;;;12.02;;
68229;SDS011;55048;52.220;5.160;2023-03-18T05:20:10;22.23;;;11.77;;
68229;SDS011;55048;52.220;5.160;2023-03-18T05:22:37;21.10;;;11.80;;
68229;SDS011;55048;52.220;5.160;2023-03-18T05:25:13;22.33;;;11.50;;
68229;SDS011;55048;52.220;5.160;2023-03-18T05:27:39;22.25;;;11.35;;
68229;SDS011;55048;52.220;5.160;2023-03-18T05:30:12;25.70;;;11.77;;
68229;SDS011;55048;52.220;5.160;2023-03-18T05:32:43;23.30;;;11.65;;
68229;SDS011;55048;52.220;5.160;2023-03-18T05:35:09;20.63;;;11.88;;
68229;SDS011;55048;52.220;5.160;2023-03-18T05:37:44;21.73;;;12.18;;
68229;SDS011;55048;52.220;5.160;2023-03-18T05:40:11;18.48;;;11.25;;
68229;SDS011;55048;52.220;5.160;2023-03-18T05:42:40;21.80;;;11.88;;
68229;SDS011;55048;52.220;5.160;2023-03-18T05:45:06;20.65;;;11.02;;
68229;SDS011;55048;52.220;5.160;2023-03-18T05:47:34;26.60;;;11.85;;
68229;SDS011;55048;52.220;5.160;2023-03-18T05:50:07;20.95;;;11.60;;
68229;SDS011;55048;52.220;5.160;2023-03-18T05:52:34;23.52;;;11.65;;
68229;SDS011;55048;52.220;5.160;2023-03-18T05:55:03;19.85;;;12.32;;
68229;SDS011;55048;52.220;5.160;2023-03-18T05:57:33;20.73;;;12.07;;
68229;SDS011;55048;52.220;5.160;2023-03-18T06:00:02;23.00;;;12.05;;
68229;SDS011;55048;52.220;5.160;2023-03-18T06:02:40;19.15;;;11.55;;
68229;SDS011;55048;52.220;5.160;2023-03-18T06:05:06;16.08;;;11.52;;
68229;SDS011;55048;52.220;5.160;2023-03-18T06:07:32;23.17;;;12.02;;
68229;SDS011;55048;52.220;5.160;2023-03-18T06:09:58;22.98;;;12.55;;
68229;SDS011;55048;52.220;5.160;2023-03-18T06:12:24;21.75;;;12.80;;
68229;SDS011;55048;52.220;5.160;2023-03-18T06:14:52;21.27;;;13.00;;
68229;SDS011;55048;52.220;5.160;2023-03-18T06:17:19;20.48;;;12.07;;
68229;SDS011;55048;52.220;5.160;2023-03-18T06:19:45;18.38;;;11.82;;
68229;SDS011;55048;52.220;5.160;2023-03-18T06:22:12;21.45;;;11.95;;
68229;SDS011;55048;52.220;5.160;2023-03-18T06:24:39;18.38;;;12.30;;
68229;SDS011;55048;52.220;5.160;2023-03-18T06:27:05;19.65;;;12.75;;
68229;SDS011;55048;52.220;5.160;2023-03-18T06:29:32;22.58;;;12.35;;
68229;SDS011;55048;52.220;5.160;2023-03-18T06:32:05;16.70;;;12.38;;
68229;SDS011;55048;52.220;5.160;2023-03-18T06:34:32;20.92;;;12.95;;
68229;SDS011;55048;52.220;5.160;2023-03-18T06:36:59;23.20;;;13.60;;
68229;SDS011;55048;52.220;5.160;2023-03-18T06:39:25;29.30;;;13.50;;
68229;SDS011;55048;52.220;5.160;2023-03-18T06:41:53;20.15;;;12.70;;
68229;SDS011;55048;52.220;5.160;2023-03-18T06:44:35;20.92;;;12.43;;
68229;SDS011;55048;52.220;5.160;2023-03-18T06:47:12;26.30;;;13.88;;
68229;SDS011;55048;52.220;5.160;2023-03-18T06:49:44;24.38;;;13.38;;
68229;SDS011;55048;52.220;5.160;2023-03-18T06:52:16;20.67;;;13.10;;
68229;SDS011;55048;52.220;5.160;2023-03-18T06:54:44;22.17;;;14.23;;
68229;SDS011;55048;52.220;5.160;2023-03-18T06:57:10;20.92;;;12.82;;
68229;SDS011;55048;52.220;5.160;2023-03-18T06:59:36;22.85;;;13.90;;
68229;SDS011;55048;52.220;5.160;2023-03-18T07:02:02;25.73;;;13.60;;
68229;SDS011;55048;52.220;5.160;2023-03-18T07:04:29;27.52;;;13.93;;
68229;SDS011;55048;52.220;5.160;2023-03-18T07:06:55;22.05;;;13.48;;
68229;SDS011;55048;52.220;5.160;2023-03-18T07:09:22;26.52;;;13.68;;
68229;SDS011;55048;52.220;5.160;2023-03-18T07:11:51;16.08;;;12.60;;
68229;SDS011;55048;52.220;5.160;2023-03-18T07:14:20;20.42;;;12.48;;
68229;SDS011;55048;52.220;5.160;2023-03-18T07:16:45;21.00;;;13.00;;
68229;SDS011;55048;52.220;5.160;2023-03-18T07:19:13;21.63;;;13.68;;
68229;SDS011;55048;52.220;5.160;2023-03-18T07:21:40;23.33;;;12.63;;
68229;SDS011;55048;52.220;5.160;2023-03-18T07:24:07;25.58;;;14.45;;
68229;SDS011;55048;52.220;5.160;2023-03-18T07:26:33;21.92;;;13.35;;
68229;SDS011;55048;52.220;5.160;2023-03-18T07:28:58;21.40;;;13.43;;
68229;SDS011;55048;52.220;5.160;2023-03-18T07:31:24;18.38;;;12.50;;
68229;SDS011;55048;52.220;5.160;2023-03-18T07:33:50;20.52;;;12.65;;
68229;SDS011;55048;52.220;5.160;2023-03-18T07:36:15;18.85;;;12.45;;
68229;SDS011;55048;52.220;5.160;2023-03-18T07:38:43;17.00;;;11.25;;
68229;SDS011;55048;52.220;5.160;2023-03-18T07:41:09;20.73;;;11.70;;
68229;SDS011;55048;52.220;5.160;2023-03-18T07:43:35;21.13;;;11.63;;
68229;SDS011;55048;52.220;5.160;2023-03-18T07:46:04;21.52;;;12.60;;
68229;SDS011;55048;52.220;5.160;2023-03-18T07:48:30;20.20;;;12.40;;
68229;SDS011;55048;52.220;5.160;2023-03-18T07:50:55;16.15;;;11.98;;
68229;SDS011;55048;52.220;5.160;2023-03-18T07:53:31;20.23;;;12.27;;
68229;SDS011;55048;52.220;5.160;2023-03-18T07:55:57;20.13;;;11.73;;
68229;SDS011;55048;52.220;5.160;2023-03-18T07:58:28;19.30;;;11.35;;
68229;SDS011;55048;52.220;5.160;2023-03-18T08:00:53;20.88;;;12.55;;
68229;SDS011;55048;52.220;5.160;2023-03-18T08:03:19;20.35;;;11.75;;
68229;SDS011;55048;52.220;5.160;2023-03-18T08:05:48;18.45;;;12.52;;
68229;SDS011;55048;52.220;5.160;2023-03-18T08:08:16;22.30;;;12.02;;
68229;SDS011;55048;52.220;5.160;2023-03-18T08:10:42;20.25;;;11.52;;
68229;SDS011;55048;52.220;5.160;2023-03-18T08:13:08;17.52;;;10.93;;
68229;SDS011;55048;52.220;5.160;2023-03-18T08:15:37;21.83;;;11.35;;
68229;SDS011;55048;52.220;5.160;2023-03-18T08:18:03;24.88;;;11.65;;
68229;SDS011;55048;52.220;5.160;2023-03-18T08:20:28;19.27;;;10.55;;
68229;SDS011;55048;52.220;5.160;2023-03-18T08:22:54;19.20;;;11.13;;
68229;SDS011;55048;52.220;5.160;2023-03-18T08:25:20;16.63;;;10.75;;
68229;SDS011;55048;52.220;5.160;2023-03-18T08:27:56;19.83;;;11.80;;
68229;SDS011;55048;52.220;5.160;2023-03-18T08:30:22;17.92;;;11.35;;
68229;SDS011;55048;52.220;5.160;2023-03-18T08:32:52;17.63;;;11.25;;
68229;SDS011;55048;52.220;5.160;2023-03-18T08:35:19;17.92;;;11.18;;
68229;SDS011;55048;52.220;5.160;2023-03-18T08:37:45;15.93;;;10.82;;
68229;SDS011;55048;52.220;5.160;2023-03-18T08:40:12;17.17;;;10.50;;
68229;SDS011;55048;52.220;5.160;2023-03-18T08:42:37;13.07;;;9.60;;
68229;SDS011;55048;52.220;5.160;2023-03-18T08:45:03;16.73;;;10.70;;
68229;SDS011;55048;52.220;5.160;2023-03-18T08:47:29;16.67;;;10.60;;
68229;SDS011;55048;52.220;5.160;2023-03-18T08:49:55;16.20;;;10.88;;
68229;SDS011;55048;52.220;5.160;2023-03-18T08:52:20;15.20;;;8.77;;
68229;SDS011;55048;52.220;5.160;2023-03-18T08:54:46;12.43;;;9.00;;
68229;SDS011;55048;52.220;5.160;2023-03-18T08:57:11;13.55;;;9.27;;
68229;SDS011;55048;52.220;5.160;2023-03-18T08:59:37;13.73;;;8.35;;
68229;SDS011;55048;52.220;5.160;2023-03-18T09:02:03;15.23;;;8.25;;
68229;SDS011;55048;52.220;5.160;2023-03-18T09:04:29;16.50;;;9.23;;
68229;SDS011;55048;52.220;5.160;2023-03-18T09:06:55;17.50;;;9.50;;
68229;SDS011;55048;52.220;5.160;2023-03-18T09:09:20;13.25;;;8.27;;
68229;SDS011;55048;52.220;5.160;2023-03-18T09:11:46;15.35;;;8.73;;
68229;SDS011;55048;52.220;5.160;2023-03-18T09:14:12;12.30;;;7.72;;
68229;SDS011;55048;52.220;5.160;2023-03-18T09:16:38;10.68;;;8.15;;
68229;SDS011;55048;52.220;5.160;2023-03-18T09:19:04;14.35;;;8.40;;
68229;SDS011;55048;52.220;5.160;2023-03-18T09:21:29;14.07;;;7.97;;
68229;SDS011;55048;52.220;5.160;2023-03-18T09:23:55;11.43;;;8.07;;
68229;SDS011;55048;52.220;5.160;2023-03-18T09:26:22;15.02;;;7.45;;
68229;SDS011;55048;52.220;5.160;2023-03-18T09:28:47;9.80;;;7.18;;
68229;SDS011;55048;52.220;5.160;2023-03-18T09:31:13;12.68;;;7.95;;
68229;SDS011;55048;52.220;5.160;2023-03-18T09:33:39;13.20;;;6.95;;
68229;SDS011;55048;52.220;5.160;2023-03-18T09:36:06;14.80;;;7.93;;
68229;SDS011;55048;52.220;5.160;2023-03-18T09:38:33;14.80;;;7.78;;
68229;SDS011;55048;52.220;5.160;2023-03-18T09:41:04;10.60;;;6.80;;
68229;SDS011;55048;52.220;5.160;2023-03-18T09:46:24;8.98;;;5.78;;
68229;SDS011;55048;52.220;5.160;2023-03-18T09:54:17;9.90;;;6.53;;
68229;SDS011;55048;52.220;5.160;2023-03-18T09:56:53;10.90;;;6.57;;
68229;SDS011;55048;52.220;5.160;2023-03-18T10:02:03;11.80;;;7.32;;
68229;SDS011;55048;52.220;5.160;2023-03-18T10:04:40;14.68;;;7.25;;
68229;SDS011;55048;52.220;5.160;2023-03-18T10:07:21;9.38;;;7.03;;
68229;SDS011;55048;52.220;5.160;2023-03-18T10:09:58;9.45;;;6.40;;
68229;SDS011;55048;52.220;5.160;2023-03-18T10:12:33;12.57;;;7.82;;
68229;SDS011;55048;52.220;5.160;2023-03-18T10:15:14;14.02;;;8.45;;
68229;SDS011;55048;52.220;5.160;2023-03-18T10:17:47;13.93;;;7.60;;
68229;SDS011;55048;52.220;5.160;2023-03-18T10:20:19;13.55;;;8.90;;
68229;SDS011;55048;52.220;5.160;2023-03-18T10:25:24;13.23;;;7.22;;
68229;SDS011;55048;52.220;5.160;2023-03-18T10:34:05;10.50;;;7.68;;
68229;SDS011;55048;52.220;5.160;2023-03-18T10:39:25;11.18;;;6.97;;
68229;SDS011;55048;52.220;5.160;2023-03-18T10:41:53;9.98;;;5.85;;
68229;SDS011;55048;52.220;5.160;2023-03-18T10:47:02;12.07;;;7.05;;
68229;SDS011;55048;52.220;5.160;2023-03-18T10:49:36;11.07;;;6.10;;
68229;SDS011;55048;52.220;5.160;2023-03-18T10:54:47;10.10;;;5.90;;
68229;SDS011;55048;52.220;5.160;2023-03-18T10:57:16;8.65;;;5.03;;
68229;SDS011;55048;52.220;5.160;2023-03-18T10:59:43;6.47;;;4.85;;
68229;SDS011;55048;52.220;5.160;2023-03-18T11:04:44;9.68;;;4.65;;
68229;SDS011;55048;52.220;5.160;2023-03-18T11:07:17;8.05;;;4.43;;
68229;SDS011;55048;52.220;5.160;2023-03-18T11:09:47;12.65;;;5.13;;
68229;SDS011;55048;52.220;5.160;2023-03-18T11:14:45;9.35;;;4.43;;
68229;SDS011;55048;52.220;5.160;2023-03-18T11:20:30;10.02;;;4.75;;
68229;SDS011;55048;52.220;5.160;2023-03-18T11:22:49;9.80;;;4.72;;
68229;SDS011;55048;52.220;5.160;2023-03-18T11:25:17;9.38;;;3.58;;
68229;SDS011;55048;52.220;5.160;2023-03-18T11:27:45;7.53;;;4.72;;
68229;SDS011;55048;52.220;5.160;2023-03-18T11:32:41;8.20;;;4.47;;
68229;SDS011;55048;52.220;5.160;2023-03-18T11:35:35;12.55;;;5.68;;
68229;SDS011;55048;52.220;5.160;2023-03-18T11:38:13;13.82;;;5.63;;
68229;SDS011;55048;52.220;5.160;2023-03-18T11:40:48;9.20;;;5.30;;
68229;SDS011;55048;52.220;5.160;2023-03-18T11:43:15;11.20;;;5.43;;
68229;SDS011;55048;52.220;5.160;2023-03-18T11:48:28;8.63;;;5.57;;
68229;SDS011;55048;52.220;5.160;2023-03-18T12:02:15;7.32;;;4.80;;
68229;SDS011;55048;52.220;5.160;2023-03-18T12:07:58;6.63;;;4.38;;
68229;SDS011;55048;52.220;5.160;2023-03-18T12:21:47;7.15;;;3.47;;
68229;SDS011;55048;52.220;5.160;2023-03-18T12:24:49;8.07;;;3.15;;
68229;SDS011;55048;52.220;5.160;2023-03-18T12:30:06;5.65;;;1.52;;
68229;SDS011;55048;52.220;5.160;2023-03-18T12:38:55;8.30;;;1.50;;
68229;SDS011;55048;52.220;5.160;2023-03-18T12:47:21;6.97;;;2.22;;
68229;SDS011;55048;52.220;5.160;2023-03-18T12:49:51;9.90;;;1.63;;
68229;SDS011;55048;52.220;5.160;2023-03-18T12:54:59;8.20;;;2.00;;
68229;SDS011;55048;52.220;5.160;2023-03-18T12:57:44;6.47;;;1.73;;
68229;SDS011;55048;52.220;5.160;2023-03-18T13:00:20;6.97;;;1.90;;
68229;SDS011;55048;52.220;5.160;2023-03-18T13:08:04;7.10;;;2.50;;
68229;SDS011;55048;52.220;5.160;2023-03-18T13:10:31;6.75;;;2.83;;
68229;SDS011;55048;52.220;5.160;2023-03-18T13:13:00;10.90;;;2.53;;
68229;SDS011;55048;52.220;5.160;2023-03-18T13:15:40;10.77;;;2.13;;
68229;SDS011;55048;52.220;5.160;2023-03-18T13:21:19;6.93;;;1.88;;
68229;SDS011;55048;52.220;5.160;2023-03-18T13:31:58;6.22;;;2.10;;
68229;SDS011;55048;52.220;5.160;2023-03-18T13:34:55;4.95;;;1.73;;
68229;SDS011;55048;52.220;5.160;2023-03-18T13:37:53;4.88;;;1.55;;
68229;SDS011;55048;52.220;5.160;2023-03-18T13:43:24;6.20;;;1.45;;
68229;SDS011;55048;52.220;5.160;2023-03-18T13:45:52;7.57;;;1.60;;
68229;SDS011;55048;52.220;5.160;2023-03-18T13:48:26;10.02;;;1.75;;
68229;SDS011;55048;52.220;5.160;2023-03-18T13:50:53;10.55;;;1.55;;
68229;SDS011;55048;52.220;5.160;2023-03-18T13:53:29;5.85;;;1.15;;
68229;SDS011;55048;52.220;5.160;2023-03-18T13:58:31;5.05;;;1.50;;
68229;SDS011;55048;52.220;5.160;2023-03-18T14:08:37;6.35;;;1.30;;
68229;SDS011;55048;52.220;5.160;2023-03-18T14:13:58;7.55;;;1.80;;
68229;SDS011;55048;52.220;5.160;2023-03-18T14:16:35;6.38;;;1.30;;
68229;SDS011;55048;52.220;5.160;2023-03-18T14:19:20;6.97;;;1.52;;
68229;SDS011;55048;52.220;5.160;2023-03-18T14:21:53;5.90;;;1.75;;
68229;SDS011;55048;52.220;5.160;2023-03-18T14:24:30;6.90;;;1.77;;
68229;SDS011;55048;52.220;5.160;2023-03-18T14:29:23;6.03;;;1.52;;
68229;SDS011;55048;52.220;5.160;2023-03-18T14:39:31;4.93;;;1.50;;
68229;SDS011;55048;52.220;5.160;2023-03-18T14:42:11;5.32;;;1.50;;
68229;SDS011;55048;52.220;5.160;2023-03-18T14:44:55;4.82;;;1.40;;
68229;SDS011;55048;52.220;5.160;2023-03-18T14:50:14;8.05;;;1.30;;
68229;SDS011;55048;52.220;5.160;2023-03-18T14:52:48;5.10;;;1.00;;
68229;SDS011;55048;52.220;5.160;2023-03-18T14:55:20;3.67;;;1.10;;
68229;SDS011;55048;52.220;5.160;2023-03-18T14:57:49;4.32;;;1.20;;
68229;SDS011;55048;52.220;5.160;2023-03-18T15:00:17;7.00;;;0.88;;
68229;SDS011;55048;52.220;5.160;2023-03-18T15:02:45;2.80;;;0.90;;
68229;SDS011;55048;52.220;5.160;2023-03-18T15:05:15;6.47;;;1.30;;
68229;SDS011;55048;52.220;5.160;2023-03-18T15:07:42;3.47;;;0.93;;
68229;SDS011;55048;52.220;5.160;2023-03-18T15:10:11;3.03;;;0.82;;
68229;SDS011;55048;52.220;5.160;2023-03-18T15:12:41;2.85;;;0.60;;
68229;SDS011;55048;52.220;5.160;2023-03-18T15:15:12;1.35;;;0.50;;
68229;SDS011;55048;52.220;5.160;2023-03-18T15:17:43;2.20;;;0.55;;
68229;SDS011;55048;52.220;5.160;2023-03-18T15:20:10;2.25;;;0.50;;
68229;SDS011;55048;52.220;5.160;2023-03-18T15:22:36;1.60;;;0.60;;
68229;SDS011;55048;52.220;5.160;2023-03-18T15:25:04;3.72;;;0.80;;
68229;SDS011;55048;52.220;5.160;2023-03-18T15:27:33;4.10;;;0.70;;
68229;SDS011;55048;52.220;5.160;2023-03-18T15:30:00;2.60;;;0.57;;
68229;SDS011;55048;52.220;5.160;2023-03-18T15:32:30;1.95;;;0.70;;
68229;SDS011;55048;52.220;5.160;2023-03-18T15:42:42;3.92;;;0.80;;
68229;SDS011;55048;52.220;5.160;2023-03-18T15:45:09;3.30;;;1.02;;
68229;SDS011;55048;52.220;5.160;2023-03-18T15:47:42;3.83;;;1.10;;
68229;SDS011;55048;52.220;5.160;2023-03-18T15:50:13;4.30;;;1.33;;
68229;SDS011;55048;52.220;5.160;2023-03-18T15:52:49;3.35;;;1.10;;
68229;SDS011;55048;52.220;5.160;2023-03-18T15:55:32;4.18;;;1.40;;
68229;SDS011;55048;52.220;5.160;2023-03-18T15:58:00;6.00;;;1.27;;
68229;SDS011;55048;52.220;5.160;2023-03-18T16:00:28;5.30;;;1.17;;
68229;SDS011;55048;52.220;5.160;2023-03-18T16:02:55;3.25;;;1.30;;
68229;SDS011;55048;52.220;5.160;2023-03-18T16:05:25;2.65;;;1.10;;
68229;SDS011;55048;52.220;5.160;2023-03-18T16:07:52;6.47;;;0.85;;
68229;SDS011;55048;52.220;5.160;2023-03-18T16:10:18;2.17;;;0.73;;
68229;SDS011;55048;52.220;5.160;2023-03-18T16:12:47;3.08;;;0.90;;
68229;SDS011;55048;52.220;5.160;2023-03-18T16:15:17;3.40;;;0.80;;
68229;SDS011;55048;52.220;5.160;2023-03-18T16:17:47;2.75;;;0.68;;
68229;SDS011;55048;52.220;5.160;2023-03-18T16:20:15;3.17;;;1.10;;
68229;SDS011;55048;52.220;5.160;2023-03-18T16:22:44;2.40;;;0.70;;
68229;SDS011;55048;52.220;5.160;2023-03-18T16:25:10;3.83;;;0.60;;
68229;SDS011;55048;52.220;5.160;2023-03-18T16:27:37;2.42;;;0.60;;
68229;SDS011;55048;52.220;5.160;2023-03-18T16:30:04;2.67;;;0.60;;
68229;SDS011;55048;52.220;5.160;2023-03-18T16:32:30;3.50;;;0.73;;
68229;SDS011;55048;52.220;5.160;2023-03-18T16:34:56;1.95;;;0.63;;
68229;SDS011;55048;52.220;5.160;2023-03-18T16:37:25;3.50;;;0.60;;
68229;SDS011;55048;52.220;5.160;2023-03-18T16:39:52;2.33;;;0.80;;
68229;SDS011;55048;52.220;5.160;2023-03-18T16:42:21;2.72;;;0.70;;
68229;SDS011;55048;52.220;5.160;2023-03-18T16:47:22;2.63;;;0.90;;
68229;SDS011;55048;52.220;5.160;2023-03-18T16:49:51;1.95;;;0.90;;
68229;SDS011;55048;52.220;5.160;2023-03-18T16:52:16;2.00;;;0.90;;
68229;SDS011;55048;52.220;5.160;2023-03-18T16:54:42;4.45;;;1.10;;
68229;SDS011;55048;52.220;5.160;2023-03-18T16:57:15;2.30;;;0.70;;
68229;SDS011;55048;52.220;5.160;2023-03-18T16:59:44;11.13;;;1.40;;
68229;SDS011;55048;52.220;5.160;2023-03-18T17:02:29;3.83;;;1.38;;
68229;SDS011;55048;52.220;5.160;2023-03-18T17:04:59;1.92;;;1.00;;
68229;SDS011;55048;52.220;5.160;2023-03-18T17:07:25;3.08;;;1.00;;
68229;SDS011;55048;52.220;5.160;2023-03-18T17:09:51;2.10;;;0.88;;
68229;SDS011;55048;52.220;5.160;2023-03-18T17:12:17;3.75;;;1.00;;
68229;SDS011;55048;52.220;5.160;2023-03-18T17:14:45;4.07;;;1.20;;